Jackson County Reynolds Field
KJXN : now visible

Airfield :











YOU CAN JOIN US ON...

 
LOGIN :

Register | Disclaimer

   EN    FR    IT 

 









Legend :    VFR   Marginal VFR   IFR   Intensive IFR   Very Intensive IFR
Visi :
Ceiling :
>= 8 km
>= 3000ft
5 to 8 km
1000 to 3000 ft
1500m to 5 km
500 to 1000 ft
800 to 1500m
200 to 500 ft
< 800m
< 200 ft
Symbols :   Thunderstorms  Fog  Heavy snow  Heavy precipitations  Wind > 20 kt






- Airport Elevation : 1001 ft


KJXN - Jackson County Reynolds Field

CURRENT METAR :
  • 181156Z 11013G23KT 4SM FZRA BR BKN010 OVC015 M01/M03 A2993 RMK AO2 UPE07B34E52FZRAB07E34B53 CIG 007V012 SLP147 P0007 60030 70046 I1001 I6001 T10111033 11011 21039 58060

EXPIRED METARs :
  • 181142Z 11011KT 2SM UP BR BKN009 OVC017 M02/M03 A2994 RMK AO2 UPE07B34FZRAB07E34 CIG 007V014 P0006 I1000 T10171033
  • 181134Z 10011G20KT 3SM UP BR SCT009 BKN013 OVC017 M02/M03 A2995 RMK AO2 UPE07B34FZRAB07E34 P0005 I1000 T10171033
  • 181122Z AUTO 12012G23KT 3SM FZRA BR BKN009 OVC014 M02/M03 A2996 RMK AO2 UPE07FZRAB07 CIG 007V011 PRESFR P0004 I1000 T10171033
  • 181056Z AUTO 10012G20KT 3SM UP BR OVC011 M02/M04 A3000 RMK AO2 UPB27SNE27 CIG 007V013 SLP170 P0011 I1000 T10221039
  • 181035Z AUTO 08011G18KT 4SM UP BR BKN009 BKN015 OVC030 M02/M04 A3002 RMK AO2 UPB27SNE27 P0007 I1000 T10221044
  • 180956Z AUTO 10013G22KT 1/2SM SN FZFG BKN010 OVC016 M03/M04 A3006 RMK AO2 SLP191 P0005 T10281044
  • 180945Z AUTO 10012G20KT 1/2SM SN FZFG SCT010 OVC014 M03/M05 A3006 RMK AO2 P0004 T10281050
  • 180928Z AUTO 09013G21KT 1SM -SN BR SCT008 OVC016 M03/M05 A3008 RMK AO2 P0002 T10331050
  • 180901Z AUTO 11013G24KT 3/4SM -SN BR FEW008 OVC013 M03/M05 A3011 RMK AO2 P0000 T10331050

TAF KJXN
Valid from the 18 at 12:00 until the 19 at 12:00 UTC


181133Z 1812/1912 12012G20KT 3SM -SN BR OVC012
TEMPO 1812/1816 3/4SM -FZRAPL BR VV008
FM181600 16012G20KT 1/2SM -DZ FG VV004
FM182200 26024G36KT 4SM -SN BR OVC015
FM190000 26024G36KT P6SM -SHSN OVC025
FM190600 26018G28KT P6SM -SHSN OVC025



MET'MAP, your aeronautical weather chart ! - Copyright ORBIFLY December 2007 - Disclaimer

ORBIFLY MET'MAP TEAM :

Programming & Development : Alexandra Zaïnal
Concept & original design : Baudouin d'Aumeries
Assistance for programming : Marc-Olivier Méhu
Technical & hardware support : Manuel Goepfert

Contact : metmap@orbifly.com




SOURCES & CREDITS :

   NOAA       Earth
Advisory